Relevés horaires Chievres (Belgique)


Relevés horaires à Chievres - Mercredi 14 Juin 2017
Heure UTC1 Température [°C] Vent [km/h] Hum. [%] Pres.4 [hPa] Visi. [Km] Nébu. [octa] Préc.5 [mm] Cond.
2m. Res. Ros. Dir.2 Vit. Moy. Raf.3
23:00 16.2 16.2 11.8 NNO 1.9 -- 3.7 75 1015.5(-0.1/3h) 20 -- -- --
22:00 17.0 17.0 11.8 NNO 1.9 -- 3.7 71 1015.7(0.6/3h) 20 -- -- --
21:00 18.6 18.6 11.8 NNO 1.9 -- 9.3 65 1015.6(0.6/3h) 20 -- -- --
20:00 21.3 21.3 12.2 ENE 3.7 -- 5.6 56 1015.5(0.1/3h) 20 -- -- --
19:00 22.8 22.8 12.2 E 3.7 -- 9.3 51 1014.8(-0.6/3h) 20 -- -- --
18:00 24.3 24.3 11.8 ENE 5.6 -- 13.0 46 1014.7(-1.5/3h) 20 -- -- --
17:00 25.7 25.7 11.0 E 7.4 -- 11.1 40 1015.2(-1.8/3h) 20 -- -- --
16:00 25.8 25.8 11.3 ENE 5.6 -- 11.1 40 1015.5(-1.7/3h) 20 -- -- --
15:00 25.8 25.8 11.6 ENE 3.7 -- 13.0 41 1016.2(-1.7/3h) 20 -- -- --
14:00 25.1 25.1 9.7 ESE 3.7 -- 11.1 38 1017(-1.5/3h) 20 -- -- --
13:00 24.7 24.7 10.6 E 7.4 -- 13.0 41 1017.2(-1.5/3h) 20 -- -- --
12:00 24.1 24.1 9.6 E 5.6 -- 13.0 40 1018.2(-0.9/3h) 20 -- -- --
11:00 23.0 23.0 9.6 E 5.6 -- 13.0 43 1018.6(-0.5/3h) 18 -- -- --
10:00 22.0 22.0 10.0 E 5.6 -- 13.0 46 1018.8(-0.4/3h) 20 -- -- --
09:00 21.2 21.2 10.0 E 7.4 -- 11.1 49 1019.2(-0.2/3h) 20 -- -- --
08:00 20.0 20.0 10.9 E 5.6 -- 9.3 56 1019.2(0.0/3h) 17 -- -- --
07:00 18.1 18.1 11.7 NNO 1.9 -- 5.6 66 1019.5(-0.1/3h) 14 -- -- --
06:00 14.8 14.8 11.2 NNO 1.9 -- 3.7 79 1019.6(0.0/3h) 12 -- -- --
05:00 12.0 12.0 9.8 NNO 1.9 -- 1.9 86 1019.5(0.0/3h) 8 -- -- --
04:00 9.3 9.3 7.3 NNO 1.9 -- 1.9 87 1019.8(0.0/3h) 15 -- -- --
03:00 9.4 9.4 7.5 NNO 1.9 -- 1.9 88 1019.7(-0.3/3h) 13 -- -- --
02:00 10.3 10.3 8.5 NNO 1.9 -- 1.9 89 1019.6(-0.6/3h) 10 -- -- --
01:00 11.4 11.4 8.5 NNO 1.9 -- 1.9 82 1019.7(-0.5/3h) 14 -- -- --
00:00 12.1 12.1 8.5 NNO 1.9 -- 9.3 79 1020.1(-0.1/3h) 17 -- -- --

1 Coordinated Universal Time. Actuellement il est 00:00 locale et 23:00 UTC.

2 Le vent souffle depuis la direction indiquée vers la direction oposée.

3 Les rafales max. sont disponible 40 min après l'heure du relevé.

4 Pour les stations d'altitude (plus de 600m) le géopotentiel du niveau le plus proche de la pression obligatoire est indiqué.

5 Les stations disposant d'un diffuseur peuvent indiquer "trace". Cela signifie que des précipitations ont touchés le sol mais que la quantité est inférieure à 0.1 mm.

Récapitulatif de la journée
Température [°C] Vent [km/h] Ensoleillement4 [h] Precipitations totale5 [mm] Pression [Hpa]
Min1 Max.2 Moy.3 Max. Min Max.
9.1 26.3 0 13.0 0 h 0 min 0 1014.7 1020.1

1 Température minimale relevée entre 18:00 UTC la veille et 18:00 UTC le jour donné.

2 Température maximale relevée entre 06:00 UTC le jour donné et 06:00 UTC le lendemain.

3 Vent moyen de la journée basé sur les relevés horaires.

4 Ensoleillement en heures relevé entre 06:00 UTC la veille et 06:00 UTC le jour donné.

5 Précipitations totales tombées entre 06:00 UTC la jour donné et 06:00 UTC le lendemain.

Graphiques horaires